Time;durP1;ratioP1;P1;durP2;ratioP2;P2;SDS_P1;SDS_P2;PMS_P1;PMS_P2;Temp;Humidity;BMP_temperature;BMP_pressure;BME280_temperature;BME280_humidity;BME280_pressure;Samples;Min_cycle;Max_cycle;Signal;HPM_P1;HPM_P2
2021/11/16 00:01:15;;;;;;;22.70;17.15;;;7.00;99.90;;;;;;4993748;28;20229;-62
2021/11/16 00:03:43;;;;;;;20.10;15.05;;;7.00;99.90;;;;;;4993816;28;20707;-61
2021/11/16 00:06:12;;;;;;;22.63;17.23;;;7.00;99.90;;;;;;4992833;28;20222;-60
2021/11/16 00:08:40;;;;;;;25.65;18.42;;;7.00;99.90;;;;;;4994369;28;20294;-60
2021/11/16 00:11:08;;;;;;;24.83;16.17;;;7.00;99.90;;;;;;4993633;28;20757;-61
2021/11/16 00:13:38;;;;;;;25.20;17.70;;;7.00;99.90;;;;;;5009430;28;20192;-62
2021/11/16 00:16:06;;;;;;;20.42;16.20;;;7.00;99.90;;;;;;4993348;28;20237;-61
2021/11/16 00:18:35;;;;;;;22.98;15.50;;;7.00;99.90;;;;;;4994215;28;20188;-61
2021/11/16 00:21:07;;;;;;;20.95;16.95;;;7.00;99.90;;;;;;4993608;28;20228;-62
2021/11/16 00:23:36;;;;;;;24.85;17.65;;;7.00;99.90;;;;;;4994301;28;20209;-63
2021/11/16 00:26:09;;;;;;;23.58;16.27;;;7.00;99.90;;;;;;4993103;28;20243;-60
2021/11/16 00:28:39;;;;;;;28.52;17.50;;;7.00;99.90;;;;;;4992840;28;20195;-60
2021/11/16 00:31:07;;;;;;;24.33;17.60;;;7.00;99.90;;;;;;4993442;28;20226;-63
2021/11/16 00:33:35;;;;;;;24.10;15.85;;;7.00;99.90;;;;;;4994142;28;20659;-62
2021/11/16 00:36:04;;;;;;;22.52;16.95;;;7.00;99.90;;;;;;4992442;28;20232;-61
2021/11/16 00:38:34;;;;;;;24.77;17.48;;;7.00;99.90;;;;;;4993657;28;20200;-60
2021/11/16 00:41:03;;;;;;;30.75;17.75;;;7.00;99.90;;;;;;4992835;28;20650;-61
2021/11/16 00:43:31;;;;;;;23.73;15.93;;;6.90;99.90;;;;;;4993710;28;20278;-62
2021/11/16 00:46:01;;;;;;;24.25;17.25;;;7.00;99.90;;;;;;4992382;28;20739;-61
2021/11/16 00:48:29;;;;;;;22.50;17.38;;;7.00;99.90;;;;;;4993402;28;20229;-61
2021/11/16 00:51:02;;;;;;;26.90;16.65;;;7.00;99.90;;;;;;5004939;28;20275;-60
2021/11/16 00:53:32;;;;;;;25.80;16.70;;;7.00;99.90;;;;;;4993315;28;20187;-63
2021/11/16 00:56:19;;;;;;;23.98;16.17;;;7.00;99.90;;;;;;4992455;28;20220;-60
2021/11/16 00:58:47;;;;;;;24.20;16.35;;;6.90;99.90;;;;;;4993298;28;20201;-60
2021/11/16 01:01:17;;;;;;;26.52;17.70;;;6.90;99.90;;;;;;4992396;28;20222;-62
2021/11/16 01:03:45;;;;;;;24.20;16.73;;;6.90;99.90;;;;;;4993324;28;20221;-61
2021/11/16 01:06:13;;;;;;;27.60;18.70;;;6.90;99.90;;;;;;4992238;28;20230;-61
2021/11/16 01:08:41;;;;;;;25.73;19.17;;;6.90;99.90;;;;;;4993218;28;20198;-61
2021/11/16 01:11:10;;;;;;;26.85;18.33;;;7.00;99.90;;;;;;4992684;28;20252;-62
2021/11/16 01:13:38;;;;;;;29.80;18.98;;;6.90;99.90;;;;;;4992874;28;20544;-62
2021/11/16 01:16:06;;;;;;;24.55;16.65;;;7.00;99.90;;;;;;4992438;28;20273;-61
2021/11/16 01:18:36;;;;;;;20.52;17.30;;;7.00;99.90;;;;;;4992182;28;20195;-60
2021/11/16 01:21:04;;;;;;;25.42;17.42;;;7.00;99.90;;;;;;4992453;28;20232;-62
2021/11/16 01:23:33;;;;;;;26.55;18.77;;;7.00;99.90;;;;;;4992668;28;20685;-62
2021/11/16 01:26:02;;;;;;;30.38;18.70;;;6.90;99.90;;;;;;4992221;28;20222;-61
2021/11/16 01:28:31;;;;;;;27.70;18.60;;;6.90;99.90;;;;;;4992803;28;20563;-61
2021/11/16 01:31:02;;;;;;;30.52;18.70;;;6.90;99.90;;;;;;4992151;28;20339;-62
2021/11/16 01:33:40;;;;;;;30.88;18.58;;;6.90;99.90;;;;;;4992667;28;20188;-63
2021/11/16 01:36:11;;;;;;;27.52;18.40;;;6.90;99.90;;;;;;4992038;28;20221;-61
2021/11/16 01:38:41;;;;;;;26.85;17.73;;;6.90;99.90;;;;;;4992793;28;20212;-60
2021/11/16 01:41:10;;;;;;;25.48;16.95;;;6.90;99.90;;;;;;4992233;28;20228;-63
2021/11/16 01:43:39;;;;;;;22.75;18.17;;;7.00;99.90;;;;;;4992324;28;20699;-62
2021/11/16 01:46:11;;;;;;;25.83;19.08;;;7.00;99.90;;;;;;4993396;28;20278;-61
2021/11/16 01:48:40;;;;;;;25.92;17.20;;;7.00;99.90;;;;;;5029641;28;20208;-60
2021/11/16 01:51:10;;;;;;;26.02;17.98;;;7.00;99.90;;;;;;5010070;28;20218;-61
2021/11/16 01:53:38;;;;;;;24.75;15.80;;;7.00;99.90;;;;;;5012269;28;20191;-62
2021/11/16 01:56:07;;;;;;;25.45;18.27;;;7.00;99.90;;;;;;5009641;28;20624;-61
2021/11/16 01:58:35;;;;;;;21.20;15.57;;;7.00;99.90;;;;;;4992731;28;20225;-61
2021/11/16 02:01:22;;;;;;;23.90;17.20;;;6.90;99.90;;;;;;4992047;28;20765;-62
2021/11/16 02:04:10;;;;;;;24.58;16.52;;;6.90;99.90;;;;;;4992442;28;20214;-61
2021/11/16 02:06:41;;;;;;;28.35;17.45;;;7.00;99.90;;;;;;4992299;28;20484;-61
2021/11/16 02:09:16;;;;;;;24.13;17.02;;;7.00;99.90;;;;;;4992431;28;20194;-61
2021/11/16 02:11:45;;;;;;;26.33;17.67;;;7.00;99.90;;;;;;4992474;28;20248;-62
2021/11/16 02:14:17;;;;;;;25.52;15.45;;;6.90;99.90;;;;;;4991882;28;20680;-62
2021/11/16 02:16:47;;;;;;;24.85;16.67;;;6.90;99.90;;;;;;4992501;28;20216;-61
2021/11/16 02:19:18;;;;;;;24.13;16.77;;;6.90;99.90;;;;;;4991752;28;20611;-61
2021/11/16 02:21:48;;;;;;;23.70;16.90;;;6.90;99.90;;;;;;4992158;28;20257;-62
2021/11/16 02:24:17;;;;;;;22.98;16.05;;;7.00;99.90;;;;;;4990774;28;20216;-62
2021/11/16 02:26:45;;;;;;;26.60;18.45;;;7.00;99.90;;;;;;4991910;28;20660;-60
2021/11/16 02:29:13;;;;;;;22.20;17.45;;;6.90;99.90;;;;;;4993600;28;20193;-61
2021/11/16 02:31:43;;;;;;;20.85;15.40;;;7.00;99.90;;;;;;4995944;28;20568;-62
2021/11/16 02:34:13;;;;;;;24.10;16.27;;;7.00;99.90;;;;;;5010728;28;20388;-62
2021/11/16 02:36:42;;;;;;;25.33;16.00;;;7.00;99.90;;;;;;4994575;28;20216;-61
2021/11/16 02:39:15;;;;;;;22.20;15.07;;;7.00;99.90;;;;;;4995664;28;20193;-60
2021/11/16 02:41:49;;;;;;;26.13;17.33;;;7.00;99.90;;;;;;4995701;28;20208;-63
2021/11/16 02:44:19;;;;;;;22.45;16.33;;;7.00;99.90;;;;;;4994999;28;20686;-62
2021/11/16 02:46:48;;;;;;;23.42;16.67;;;7.00;99.90;;;;;;4995696;28;20298;-61
2021/11/16 02:49:17;;;;;;;22.77;15.10;;;7.00;99.90;;;;;;4997135;28;20237;-61
2021/11/16 02:51:45;;;;;;;20.08;15.18;;;7.00;99.90;;;;;;5006180;28;20227;-62
2021/11/16 02:54:17;;;;;;;24.67;17.08;;;7.00;99.90;;;;;;4994131;28;20245;-61
2021/11/16 02:56:47;;;;;;;25.88;16.38;;;7.00;99.90;;;;;;4995182;28;20626;-61
2021/11/16 02:59:16;;;;;;;24.20;16.40;;;7.00;99.90;;;;;;4995005;28;20196;-60
2021/11/16 03:01:44;;;;;;;20.63;14.32;;;7.00;99.90;;;;;;4995269;28;20628;-61
2021/11/16 03:04:20;;;;;;;22.92;15.77;;;6.90;99.90;;;;;;4995151;28;20208;-62
2021/11/16 03:06:49;;;;;;;18.77;14.85;;;6.90;99.90;;;;;;4995460;28;20630;-61
2021/11/16 03:09:19;;;;;;;20.85;15.48;;;6.90;99.90;;;;;;4994916;28;20216;-61
2021/11/16 03:11:49;;;;;;;36.30;16.15;;;6.90;99.90;;;;;;4994999;28;20193;-62
2021/11/16 03:14:18;;;;;;;19.10;14.73;;;6.90;99.90;;;;;;4994998;28;20203;-62
2021/11/16 03:16:48;;;;;;;21.40;15.88;;;6.90;99.90;;;;;;4994817;28;20213;-60
2021/11/16 03:19:17;;;;;;;20.92;16.38;;;6.90;99.90;;;;;;4994866;28;20233;-61
2021/11/16 03:21:54;;;;;;;22.48;17.17;;;6.90;99.90;;;;;;4995293;28;20198;-63
2021/11/16 03:24:25;;;;;;;24.55;16.02;;;6.90;99.90;;;;;;4994834;28;20212;-63
2021/11/16 03:26:54;;;;;;;21.42;14.73;;;6.90;99.90;;;;;;4994645;28;20272;-62
2021/11/16 03:29:24;;;;;;;21.05;15.45;;;6.90;99.90;;;;;;4994528;28;20194;-62
2021/11/16 03:32:00;;;;;;;22.10;15.57;;;6.90;99.90;;;;;;4994822;28;20672;-62
2021/11/16 03:34:29;;;;;;;22.60;16.75;;;6.90;99.90;;;;;;4994213;28;20227;-62
2021/11/16 03:36:57;;;;;;;20.77;14.35;;;6.90;99.90;;;;;;4995339;28;20228;-61
2021/11/16 03:39:27;;;;;;;21.40;14.65;;;6.90;99.90;;;;;;4994137;28;20611;-61
2021/11/16 03:41:56;;;;;;;19.15;14.60;;;6.90;99.90;;;;;;4994068;28;20608;-61
2021/11/16 03:44:25;;;;;;;22.20;15.88;;;6.90;99.90;;;;;;4992477;28;20221;-62
2021/11/16 03:46:54;;;;;;;23.23;16.42;;;6.90;99.90;;;;;;4994547;28;20258;-60
2021/11/16 03:49:22;;;;;;;19.30;14.18;;;6.90;99.90;;;;;;5014316;28;20218;-60
2021/11/16 03:51:50;;;;;;;24.77;15.52;;;6.90;99.90;;;;;;4996333;28;20270;-63
2021/11/16 03:54:19;;;;;;;19.42;14.82;;;6.90;99.90;;;;;;4993074;28;20191;-63
2021/11/16 03:56:49;;;;;;;22.10;14.40;;;6.80;99.90;;;;;;4994413;28;20723;-62
2021/11/16 03:59:17;;;;;;;21.02;14.52;;;6.90;99.90;;;;;;4993912;28;20187;-61
2021/11/16 04:01:46;;;;;;;17.13;14.32;;;6.90;99.90;;;;;;5009470;28;20196;-63
2021/11/16 04:04:18;;;;;;;23.88;15.32;;;6.90;99.90;;;;;;5010482;28;20298;-62
2021/11/16 04:06:46;;;;;;;23.10;14.95;;;6.90;99.90;;;;;;5001545;28;20336;-61
2021/11/16 04:09:14;;;;;;;17.50;13.40;;;6.80;99.90;;;;;;4993887;28;20199;-61
2021/11/16 04:11:42;;;;;;;22.45;15.27;;;6.90;99.90;;;;;;4994324;28;20225;-61
2021/11/16 04:14:12;;;;;;;19.77;14.90;;;6.80;99.90;;;;;;4993986;28;20191;-62
2021/11/16 04:16:40;;;;;;;26.33;18.40;;;6.80;99.90;;;;;;4994047;28;20218;-63
2021/11/16 04:19:08;;;;;;;21.50;17.08;;;6.80;99.90;;;;;;4993232;28;20208;-61
2021/11/16 04:21:36;;;;;;;20.30;16.95;;;6.80;99.90;;;;;;4994018;28;20259;-62
2021/11/16 04:24:05;;;;;;;22.88;17.90;;;6.80;99.90;;;;;;4993493;28;20191;-62
2021/11/16 04:26:33;;;;;;;25.70;18.88;;;6.80;99.90;;;;;;4993982;28;20229;-62
2021/11/16 04:29:02;;;;;;;23.48;19.20;;;6.80;99.90;;;;;;4993904;28;20629;-61
2021/11/16 04:31:31;;;;;;;21.67;18.23;;;6.80;99.90;;;;;;4992307;28;20309;-61
2021/11/16 04:34:03;;;;;;;23.63;17.30;;;6.80;99.90;;;;;;4976047;28;20192;-62
2021/11/16 04:36:31;;;;;;;20.83;16.17;;;6.70;99.90;;;;;;4993144;28;20277;-63
2021/11/16 04:39:00;;;;;;;24.67;17.60;;;6.70;99.90;;;;;;4993688;28;20198;-61
2021/11/16 04:41:28;;;;;;;20.50;16.17;;;6.70;99.90;;;;;;4993373;28;20227;-62
2021/11/16 04:43:58;;;;;;;23.95;16.95;;;6.70;99.90;;;;;;4993385;28;20246;-62
2021/11/16 04:46:27;;;;;;;21.35;15.60;;;6.80;99.90;;;;;;4992782;28;20226;-63
2021/11/16 04:49:02;;;;;;;20.17;14.68;;;6.70;99.90;;;;;;4993396;28;20198;-60
2021/11/16 04:51:44;;;;;;;25.08;17.15;;;6.70;99.90;;;;;;4993098;28;20232;-62
2021/11/16 04:54:32;;;;;;;20.88;15.43;;;6.70;99.90;;;;;;5008655;28;20172;-61
2021/11/16 04:59:53;;;;;;;21.10;15.80;;;6.70;99.90;;;;;;4992914;28;20226;-60
2021/11/16 05:02:35;;;;;;;21.93;16.23;;;6.80;99.90;;;;;;4993240;28;20254;-62
2021/11/16 05:05:08;;;;;;;23.15;16.25;;;6.80;99.90;;;;;;4992767;28;20567;-61
2021/11/16 05:07:39;;;;;;;21.23;14.82;;;6.80;99.90;;;;;;4992889;28;20214;-61
2021/11/16 05:10:09;;;;;;;25.15;16.58;;;6.80;99.90;;;;;;4992766;28;20241;-61
2021/11/16 05:12:37;;;;;;;25.97;16.33;;;6.80;99.90;;;;;;4993315;28;20206;-62
2021/11/16 05:15:11;;;;;;;20.20;14.88;;;6.80;99.90;;;;;;4992413;28;20528;-62
2021/11/16 05:17:39;;;;;;;20.92;15.55;;;6.70;99.90;;;;;;5008003;28;20595;-61
2021/11/16 05:20:10;;;;;;;22.20;15.15;;;6.80;99.90;;;;;;4992340;28;20223;-61
2021/11/16 05:22:38;;;;;;;26.80;15.85;;;6.80;99.90;;;;;;4991912;28;20233;-62
2021/11/16 05:25:07;;;;;;;27.20;16.15;;;6.70;99.90;;;;;;4992397;28;20749;-63
2021/11/16 05:27:35;;;;;;;21.55;15.02;;;6.70;99.90;;;;;;4992721;28;20217;-60
2021/11/16 05:30:06;;;;;;;21.83;16.25;;;6.70;99.90;;;;;;4992075;28;20226;-60
2021/11/16 05:32:35;;;;;;;22.42;15.00;;;6.70;99.90;;;;;;5007930;28;20196;-62
2021/11/16 05:35:03;;;;;;;21.02;14.23;;;6.70;99.90;;;;;;4991666;28;20695;-62
2021/11/16 05:37:33;;;;;;;20.42;15.10;;;6.60;99.90;;;;;;4992634;28;20285;-61
2021/11/16 05:40:01;;;;;;;21.92;14.23;;;6.70;99.90;;;;;;4992269;28;20228;-61
2021/11/16 05:42:29;;;;;;;22.77;14.80;;;6.70;99.90;;;;;;5000153;28;20200;-62
2021/11/16 05:44:59;;;;;;;21.88;13.95;;;6.70;99.90;;;;;;4992022;28;20225;-63
2021/11/16 05:47:27;;;;;;;16.20;12.00;;;6.70;99.90;;;;;;4992400;28;20740;-60
2021/11/16 05:49:55;;;;;;;18.52;12.65;;;6.70;99.90;;;;;;5000363;28;20227;-60
2021/11/16 05:52:24;;;;;;;20.90;15.02;;;6.60;99.90;;;;;;5011000;28;20185;-63
2021/11/16 05:54:54;;;;;;;18.13;13.02;;;6.60;99.90;;;;;;5011398;28;20229;-62
2021/11/16 05:57:22;;;;;;;18.75;13.45;;;6.60;99.90;;;;;;5000195;28;20636;-61
2021/11/16 05:59:50;;;;;;;23.63;13.73;;;6.60;99.90;;;;;;4991788;28;20578;-61
2021/11/16 06:02:18;;;;;;;22.58;14.68;;;6.60;99.90;;;;;;4992514;28;20434;-61
2021/11/16 06:04:47;;;;;;;24.08;15.48;;;6.60;99.90;;;;;;4994391;28;20224;-63
2021/11/16 06:07:15;;;;;;;25.35;14.40;;;6.60;99.90;;;;;;4996333;28;20228;-62
2021/11/16 06:09:43;;;;;;;20.33;14.23;;;6.60;99.90;;;;;;4995699;28;21453;-61
2021/11/16 06:12:13;;;;;;;16.95;12.38;;;6.60;99.90;;;;;;4996520;28;20256;-63
2021/11/16 06:14:43;;;;;;;21.60;13.07;;;6.60;99.90;;;;;;4995867;28;20228;-63
2021/11/16 06:17:11;;;;;;;19.92;14.00;;;6.60;99.90;;;;;;4996573;28;20588;-63
2021/11/16 06:19:41;;;;;;;20.52;13.23;;;6.60;99.90;;;;;;4995564;28;20230;-61
2021/11/16 06:22:10;;;;;;;19.58;13.35;;;6.60;99.90;;;;;;4996364;28;20275;-62
2021/11/16 06:24:39;;;;;;;21.02;13.70;;;6.60;99.90;;;;;;4995454;28;20227;-61
2021/11/16 06:27:08;;;;;;;17.35;12.80;;;6.60;99.90;;;;;;4996290;28;20271;-63
2021/11/16 06:29:38;;;;;;;20.50;13.63;;;6.70;99.90;;;;;;4995549;28;20239;-61
2021/11/16 06:32:07;;;;;;;18.80;12.55;;;6.60;99.90;;;;;;4996141;28;20213;-63
2021/11/16 06:34:36;;;;;;;16.38;10.65;;;6.60;99.90;;;;;;4995144;28;20281;-62
2021/11/16 06:37:05;;;;;;;16.17;11.63;;;6.60;99.90;;;;;;4996088;28;20245;-63
2021/11/16 06:39:34;;;;;;;18.88;11.98;;;6.60;99.90;;;;;;4995509;28;20573;-61
2021/11/16 06:42:02;;;;;;;18.55;10.88;;;6.60;99.90;;;;;;4996293;28;20644;-63
2021/11/16 06:44:31;;;;;;;14.40;10.25;;;6.60;99.90;;;;;;5010267;28;20218;-61
2021/11/16 06:47:00;;;;;;;13.98;9.77;;;6.60;99.90;;;;;;4995490;28;20215;-62
2021/11/16 06:49:28;;;;;;;14.82;8.30;;;6.60;99.90;;;;;;4998167;28;20248;-61
2021/11/16 06:51:57;;;;;;;13.38;7.68;;;6.60;99.90;;;;;;5014056;28;20205;-61
2021/11/16 06:54:27;;;;;;;11.95;8.27;;;6.60;99.90;;;;;;5013557;28;20229;-62
2021/11/16 06:56:57;;;;;;;11.27;8.63;;;6.50;99.90;;;;;;5009720;28;20215;-62
2021/11/16 06:59:26;;;;;;;12.80;9.38;;;6.50;99.90;;;;;;4995000;28;20238;-60
2021/11/16 07:01:55;;;;;;;16.48;10.00;;;6.50;99.90;;;;;;4994425;28;20199;-61
2021/11/16 07:04:25;;;;;;;17.88;10.60;;;6.50;99.90;;;;;;4993821;28;20253;-61
2021/11/16 07:06:54;;;;;;;39.58;22.98;;;6.50;99.90;;;;;;4995302;28;20223;-62
2021/11/16 07:09:23;;;;;;;45.05;24.67;;;6.50;99.90;;;;;;4994797;28;20240;-60
2021/11/16 07:11:53;;;;;;;34.80;19.42;;;6.60;99.90;;;;;;4995265;28;20206;-60
2021/11/16 07:14:24;;;;;;;28.13;14.63;;;6.60;99.90;;;;;;4994359;28;20283;-61
2021/11/16 07:17:00;;;;;;;26.10;15.50;;;6.60;99.90;;;;;;4994991;28;20724;-62
2021/11/16 07:19:35;;;;;;;21.25;12.10;;;6.60;99.90;;;;;;5011599;28;20227;-61
2021/11/16 07:22:09;;;;;;;17.88;10.95;;;6.60;99.90;;;;;;5014247;28;20256;-61
2021/11/16 07:24:43;;;;;;;21.98;12.45;;;6.60;99.90;;;;;;5001099;28;20222;-62
2021/11/16 07:27:12;;;;;;;17.02;11.55;;;6.60;99.90;;;;;;5000419;28;20230;-62
2021/11/16 07:29:42;;;;;;;19.75;11.40;;;6.60;99.90;;;;;;5014244;28;20272;-60
2021/11/16 07:32:14;;;;;;;19.73;13.35;;;6.60;99.90;;;;;;5013149;28;20197;-61
2021/11/16 07:34:44;;;;;;;22.08;13.27;;;6.50;99.90;;;;;;5009851;28;20696;-61
2021/11/16 07:37:15;;;;;;;19.55;11.77;;;6.60;99.90;;;;;;4994580;28;20743;-62
2021/11/16 07:39:51;;;;;;;20.17;12.75;;;6.60;99.90;;;;;;4997703;28;20215;-61
2021/11/16 07:42:20;;;;;;;17.58;12.32;;;6.60;99.90;;;;;;5003095;28;20616;-61
2021/11/16 07:45:08;;;;;;;15.73;10.20;;;6.60;99.90;;;;;;4994385;28;20224;-62
2021/11/16 07:47:46;;;;;;;18.13;10.43;;;6.60;99.90;;;;;;5006748;28;20301;-63
2021/11/16 07:50:45;;;;;;;14.60;9.00;;;6.60;99.90;;;;;;5001755;28;20230;-61
2021/11/16 07:53:17;;;;;;;11.70;8.77;;;6.60;99.90;;;;;;4990392;28;20232;-61
2021/11/16 07:55:56;;;;;;;15.13;9.68;;;6.60;99.90;;;;;;4993746;28;20704;-61
2021/11/16 07:58:29;;;;;;;14.98;8.05;;;6.60;99.90;;;;;;4994537;28;20201;-62
2021/11/16 08:01:00;;;;;;;11.77;8.32;;;6.60;99.90;;;;;;4994088;28;20600;-61
2021/11/16 08:03:35;;;;;;;10.88;7.40;;;6.60;99.90;;;;;;4994331;28;20203;-63
2021/11/16 08:06:12;;;;;;;12.57;8.40;;;6.60;99.90;;;;;;4993688;28;20236;-62
2021/11/16 08:08:54;;;;;;;12.13;7.50;;;6.60;99.90;;;;;;4993414;28;20251;-61
2021/11/16 08:11:28;;;;;;;12.93;6.45;;;6.70;99.90;;;;;;4993603;28;20219;-61
2021/11/16 08:13:59;;;;;;;11.98;7.38;;;6.60;99.90;;;;;;4994383;28;20193;-62
2021/11/16 08:16:29;;;;;;;11.80;8.00;;;6.60;99.90;;;;;;4998707;28;20223;-62
2021/11/16 08:19:05;;;;;;;13.70;9.50;;;6.70;99.90;;;;;;5013498;28;20302;-60
2021/11/16 08:21:36;;;;;;;11.60;8.00;;;6.70;99.90;;;;;;4998386;28;20219;-60
2021/11/16 08:24:07;;;;;;;10.35;7.00;;;6.70;99.90;;;;;;4992522;28;20192;-61
2021/11/16 08:26:37;;;;;;;10.68;7.32;;;6.70;99.90;;;;;;4993289;28;20244;-62
2021/11/16 08:29:07;;;;;;;10.82;6.82;;;6.70;99.90;;;;;;4993796;28;20179;-61
2021/11/16 08:31:46;;;;;;;11.27;7.93;;;6.70;99.90;;;;;;5027487;28;20224;-61
2021/11/16 08:34:15;;;;;;;7.80;6.30;;;6.70;99.90;;;;;;5006515;28;20188;-63
2021/11/16 08:36:48;;;;;;;11.70;8.40;;;6.70;99.90;;;;;;4993742;28;20202;-63
2021/11/16 08:39:19;;;;;;;10.25;7.35;;;6.70;99.90;;;;;;4992911;28;20201;-61
2021/11/16 08:41:48;;;;;;;11.40;7.80;;;6.70;99.90;;;;;;4993477;28;20199;-61
2021/11/16 08:44:20;;;;;;;10.70;7.57;;;6.70;99.90;;;;;;4992715;28;20225;-62
2021/11/16 08:46:50;;;;;;;9.30;6.10;;;6.70;99.90;;;;;;4993339;28;20713;-62
2021/11/16 08:49:28;;;;;;;9.43;6.80;;;6.70;99.90;;;;;;4992677;28;20210;-61
2021/11/16 08:52:01;;;;;;;8.43;5.70;;;6.70;99.90;;;;;;4991932;28;20196;-61
2021/11/16 08:54:35;;;;;;;9.20;5.90;;;6.60;99.90;;;;;;4992637;28;20727;-62
2021/11/16 08:57:05;;;;;;;5.90;4.93;;;6.70;99.90;;;;;;4992983;28;20695;-63
2021/11/16 08:59:36;;;;;;;6.72;4.10;;;6.70;99.90;;;;;;5007312;28;20281;-61
2021/11/16 09:02:07;;;;;;;5.90;4.53;;;6.70;99.90;;;;;;5012795;28;20198;-61
2021/11/16 09:04:39;;;;;;;7.57;6.05;;;6.70;99.90;;;;;;5011995;28;20306;-62
2021/11/16 09:07:20;;;;;;;6.57;4.93;;;6.80;99.90;;;;;;4996417;28;20276;-62
2021/11/16 09:09:54;;;;;;;8.10;4.80;;;6.80;99.90;;;;;;4992820;28;20222;-62
2021/11/16 09:12:37;;;;;;;8.60;4.03;;;6.80;99.90;;;;;;4993141;28;20649;-62
2021/11/16 09:15:08;;;;;;;6.35;4.95;;;6.90;99.90;;;;;;4992021;28;20230;-63
2021/11/16 09:17:37;;;;;;;8.57;5.57;;;6.90;99.90;;;;;;4989774;28;20696;-63
2021/11/16 09:20:22;;;;;;;6.78;5.18;;;6.90;99.90;;;;;;5027398;28;20219;-61
2021/11/16 09:22:56;;;;;;;7.63;5.00;;;6.90;99.90;;;;;;4996390;28;20208;-61
2021/11/16 09:25:29;;;;;;;8.18;4.90;;;7.00;99.90;;;;;;4992181;28;20281;-62
2021/11/16 09:28:03;;;;;;;8.50;4.43;;;7.00;99.90;;;;;;4987937;28;20276;-63
2021/11/16 09:30:34;;;;;;;8.27;5.32;;;7.00;99.90;;;;;;4992571;28;20272;-60
2021/11/16 09:33:09;;;;;;;7.95;5.38;;;7.10;99.90;;;;;;4993049;28;20198;-60
2021/11/16 09:35:49;;;;;;;6.40;4.70;;;7.10;99.90;;;;;;4992258;28;20220;-62
2021/11/16 09:41:13;;;;;;;7.38;4.85;;;7.10;99.90;;;;;;5070173;27;20535;-60
2021/11/16 09:43:41;;;;;;;7.03;5.18;;;7.10;99.90;;;;;;5069099;28;20197;-60
2021/11/16 09:46:12;;;;;;;6.85;4.70;;;7.10;99.90;;;;;;5068366;28;20731;-63
2021/11/16 09:48:41;;;;;;;8.10;4.53;;;7.10;99.90;;;;;;5069213;28;20608;-61
2021/11/16 09:51:17;;;;;;;6.53;4.97;;;7.20;99.90;;;;;;5033585;28;20258;-60
2021/11/16 09:53:45;;;;;;;7.47;5.28;;;7.20;99.90;;;;;;5028813;28;20192;-61
2021/11/16 09:56:21;;;;;;;5.90;4.75;;;7.20;99.90;;;;;;5028442;28;20241;-61
2021/11/16 09:58:49;;;;;;;9.50;4.25;;;7.20;99.90;;;;;;5048762;28;20276;-61
2021/11/16 10:01:23;;;;;;;5.67;4.73;;;7.20;99.90;;;;;;5048309;28;20226;-61
2021/11/16 10:04:07;;;;;;;5.37;4.40;;;7.30;99.90;;;;;;5048607;28;20415;-61
2021/11/16 10:06:36;;;;;;;6.23;4.87;;;7.30;99.90;;;;;;5041262;28;20551;-61
2021/11/16 10:09:05;;;;;;;5.85;4.75;;;7.30;99.90;;;;;;5028312;28;20428;-61
2021/11/16 10:11:40;;;;;;;6.25;4.50;;;7.40;99.90;;;;;;5028042;28;20219;-59
2021/11/16 10:14:14;;;;;;;9.13;4.73;;;7.40;99.90;;;;;;5028453;28;20728;-60
2021/11/16 10:16:43;;;;;;;5.57;3.97;;;7.40;99.90;;;;;;5028675;28;20447;-63
2021/11/16 10:19:31;;;;;;;7.20;4.40;;;7.50;99.90;;;;;;5032454;28;20539;-62
2021/11/16 10:21:59;;;;;;;8.02;4.25;;;7.50;99.90;;;;;;5048654;28;20477;-60
2021/11/16 10:24:31;;;;;;;6.32;4.43;;;7.50;99.90;;;;;;5047614;28;20228;-62
2021/11/16 10:27:04;;;;;;;6.45;3.70;;;7.50;99.90;;;;;;5039156;28;20206;-61
2021/11/16 10:29:32;;;;;;;7.30;4.20;;;7.50;99.90;;;;;;5027961;28;20271;-62
2021/11/16 10:32:18;;;;;;;6.10;4.67;;;7.60;99.90;;;;;;5028210;28;20428;-60
2021/11/16 10:34:47;;;;;;;5.60;4.93;;;7.60;99.90;;;;;;5027543;28;20501;-60
2021/11/16 10:37:15;;;;;;;4.93;4.10;;;7.60;99.90;;;;;;5028378;28;20451;-61
2021/11/16 10:39:43;;;;;;;6.23;4.00;;;7.50;99.90;;;;;;5027520;28;20475;-62
2021/11/16 10:42:18;;;;;;;4.67;3.70;;;7.50;99.90;;;;;;5028053;28;20449;-61
2021/11/16 10:44:59;;;;;;;8.23;5.83;;;7.60;99.90;;;;;;5026011;28;20952;-61
2021/11/16 10:47:35;;;;;;;6.63;4.30;;;7.60;99.90;;;;;;5028033;28;20440;-62
2021/11/16 10:50:09;;;;;;;6.47;4.10;;;7.70;99.90;;;;;;5027540;28;20463;-60
2021/11/16 10:52:38;;;;;;;5.40;4.60;;;7.70;99.90;;;;;;5032088;28;20497;-60
2021/11/16 10:55:08;;;;;;;6.70;3.63;;;7.70;99.90;;;;;;5032960;28;20464;-61
2021/11/16 10:58:04;;;;;;;8.73;3.87;;;7.70;99.90;;;;;;5032933;28;20518;-61
2021/11/16 11:00:36;;;;;;;6.50;4.17;;;7.70;99.90;;;;;;5034083;28;20521;-59
2021/11/16 11:03:20;;;;;;;3.97;3.60;;;7.70;99.90;;;;;;5034391;28;20447;-60
2021/11/16 11:05:50;;;;;;;6.60;4.07;;;7.80;99.90;;;;;;5033673;28;20467;-61
2021/11/16 11:08:33;;;;;;;5.80;3.87;;;7.80;99.90;;;;;;5033073;28;20502;-61
2021/11/16 11:11:07;;;;;;;5.57;3.80;;;7.80;99.90;;;;;;5023081;28;20460;-60
2021/11/16 11:13:37;;;;;;;4.37;3.53;;;7.80;99.90;;;;;;5014513;28;20475;-60
2021/11/16 11:16:15;;;;;;;4.43;3.63;;;7.90;99.90;;;;;;5013651;28;20559;-61
2021/11/16 11:18:48;;;;;;;4.20;3.10;;;7.90;99.90;;;;;;5014578;28;20474;-60
2021/11/16 11:21:26;;;;;;;6.87;3.87;;;7.90;99.90;;;;;;5019008;28;20518;-60
2021/11/16 11:23:56;;;;;;;5.63;4.13;;;7.90;99.90;;;;;;5034000;28;20420;-60
2021/11/16 11:29:37;;;;;;;5.77;4.20;;;7.90;99.90;;;;;;5033664;28;20417;-61
2021/11/16 11:32:10;;;;;;;5.23;3.70;;;7.90;99.90;;;;;;5032649;28;20494;-60
2021/11/16 11:34:42;;;;;;;4.90;4.27;;;7.90;99.90;;;;;;5021546;28;20455;-60
2021/11/16 11:37:14;;;;;;;6.43;3.80;;;7.90;99.90;;;;;;4994253;28;20504;-61
2021/11/16 11:39:42;;;;;;;7.23;4.10;;;7.90;99.90;;;;;;4993640;28;20446;-62
2021/11/16 11:42:13;;;;;;;6.17;3.80;;;7.90;99.90;;;;;;5012798;28;20490;-60
2021/11/16 11:44:56;;;;;;;7.53;5.13;;;7.90;99.90;;;;;;5033104;28;20500;-60
2021/11/16 11:47:29;;;;;;;9.80;4.20;;;7.80;99.90;;;;;;5033472;28;20929;-62
2021/11/16 11:49:59;;;;;;;6.87;5.10;;;7.70;99.90;;;;;;5016127;28;20479;-61
2021/11/16 11:52:27;;;;;;;8.13;4.87;;;7.70;99.90;;;;;;5033629;28;20814;-60
2021/11/16 11:54:56;;;;;;;9.37;5.13;;;7.80;99.90;;;;;;5018611;28;20464;-62
2021/11/16 11:57:24;;;;;;;5.83;4.03;;;7.70;99.90;;;;;;5023646;28;20495;-61
2021/11/16 11:59:57;;;;;;;4.60;3.33;;;7.70;99.90;;;;;;5033024;28;20885;-62
2021/11/16 12:02:26;;;;;;;7.03;4.97;;;7.60;99.90;;;;;;5032552;28;20424;-61
2021/11/16 12:04:55;;;;;;;7.10;5.00;;;7.70;99.90;;;;;;5032372;28;20468;-61
2021/11/16 12:07:25;;;;;;;4.78;4.22;;;7.70;99.90;;;;;;5031514;28;20837;-61
2021/11/16 12:09:54;;;;;;;5.45;3.95;;;7.60;99.90;;;;;;5032438;28;20295;-62
2021/11/16 12:12:23;;;;;;;8.27;4.60;;;7.60;99.90;;;;;;5031444;28;20207;-60
2021/11/16 12:15:01;;;;;;;6.60;4.63;;;7.60;99.90;;;;;;5032158;28;20464;-60
2021/11/16 12:17:31;;;;;;;7.18;4.32;;;7.50;99.90;;;;;;5019273;28;20446;-61
2021/11/16 12:20:00;;;;;;;6.47;4.60;;;7.50;99.90;;;;;;5012814;28;20229;-61
2021/11/16 12:22:31;;;;;;;5.72;4.65;;;7.40;99.90;;;;;;5008017;28;20848;-60
2021/11/16 12:25:01;;;;;;;6.72;4.70;;;7.30;99.90;;;;;;4991658;28;20224;-60
2021/11/16 12:27:34;;;;;;;7.40;4.53;;;7.40;99.90;;;;;;5009847;28;20214;-62
2021/11/16 12:30:06;;;;;;;11.20;4.88;;;7.50;99.90;;;;;;5012667;28;20246;-61
2021/11/16 12:32:37;;;;;;;7.72;4.80;;;7.50;99.90;;;;;;5013189;28;20189;-59
2021/11/16 12:35:17;;;;;;;6.40;4.72;;;7.20;99.90;;;;;;5013906;28;20763;-61
2021/11/16 12:37:47;;;;;;;7.57;4.70;;;7.20;99.90;;;;;;5032861;28;20193;-62
2021/11/16 12:40:22;;;;;;;6.32;4.25;;;7.20;99.90;;;;;;5031897;28;20222;-61
2021/11/16 12:43:11;;;;;;;7.57;4.68;;;7.20;99.90;;;;;;5031376;28;20197;-61
2021/11/16 12:45:43;;;;;;;7.43;5.65;;;7.10;99.90;;;;;;5031602;28;20651;-62
2021/11/16 12:48:13;;;;;;;8.82;5.20;;;7.10;99.90;;;;;;5032605;28;20645;-61
2021/11/16 12:51:08;;;;;;;8.40;5.30;;;7.00;99.90;;;;;;5031042;28;20615;-61
2021/11/16 12:53:55;;;;;;;8.32;5.53;;;7.00;99.90;;;;;;4993060;28;20209;-60
2021/11/16 12:56:46;;;;;;;10.38;4.57;;;7.10;99.90;;;;;;5013527;28;20313;-62
2021/11/16 12:59:18;;;;;;;6.38;4.25;;;7.20;99.90;;;;;;4992261;28;20193;-61
2021/11/16 13:01:51;;;;;;;7.85;5.68;;;7.30;99.90;;;;;;4992877;28;20554;-60
2021/11/16 13:04:40;;;;;;;9.23;6.40;;;7.30;99.90;;;;;;4992037;28;20196;-60
2021/11/16 13:07:24;;;;;;;11.10;6.68;;;7.30;99.90;;;;;;5004652;28;20215;-61
2021/11/16 13:09:55;;;;;;;9.63;6.53;;;7.30;99.90;;;;;;5011965;28;20220;-61
2021/11/16 13:12:43;;;;;;;10.63;6.95;;;7.30;99.90;;;;;;5012395;28;20652;-61
2021/11/16 13:15:20;;;;;;;11.40;7.32;;;7.30;99.90;;;;;;5001495;28;20225;-61